Time;durP1;ratioP1;P1;durP2;ratioP2;P2;SDS_P1;SDS_P2;PMS_P1;PMS_P2;Temp;Humidity;BMP_temperature;BMP_pressure;BME280_temperature;BME280_humidity;BME280_pressure;Samples;Min_cycle;Max_cycle;Signal;HPM_P1;HPM_P2
2022/03/20 00:00:08;;;;;;;31.50;16.88;;;;;;;0.31;92.09;103685.34;4919085;29;20032;-75
2022/03/20 00:02:55;;;;;;;30.65;17.15;;;;;;;-0.63;100.00;103689.53;4919319;29;20020;-75
2022/03/20 00:05:42;;;;;;;33.13;16.88;;;;;;;0.27;100.00;103692.78;4919036;29;20036;-74
2022/03/20 00:08:27;;;;;;;32.15;17.77;;;;;;;0.20;100.00;103690.53;4919870;29;20040;-73
2022/03/20 00:11:13;;;;;;;34.03;18.35;;;;;;;0.29;100.00;103688.63;4919630;29;20058;-74
2022/03/20 00:13:59;;;;;;;32.97;18.65;;;;;;;0.32;100.00;103688.84;4918739;29;20056;-72
2022/03/20 00:16:45;;;;;;;35.08;19.45;;;;;;;-0.03;100.00;103686.31;4919123;29;20036;-72
2022/03/20 00:19:32;;;;;;;42.85;20.77;;;;;;;0.15;100.00;103687.63;4905409;29;20350;-76
2022/03/20 00:22:18;;;;;;;41.50;21.13;;;;;;;-0.14;100.00;103682.06;4904875;29;20032;-72
2022/03/20 00:25:04;;;;;;;46.35;22.58;;;;;;;-0.03;100.00;103682.03;4919359;29;20028;-72
2022/03/20 00:27:50;;;;;;;46.22;21.15;;;;;;;-0.15;100.00;103682.84;4919164;29;20044;-72
2022/03/20 00:30:37;;;;;;;42.25;20.58;;;;;;;-0.11;100.00;103682.28;4919315;29;20024;-72
2022/03/20 00:33:23;;;;;;;33.28;17.70;;;;;;;-0.14;100.00;103677.81;4918341;29;20119;-73
2022/03/20 00:36:08;;;;;;;33.47;16.90;;;;;;;-0.34;100.00;103682.28;4918479;29;20434;-76
2022/03/20 00:38:54;;;;;;;28.38;15.55;;;;;;;-0.31;100.00;103672.22;4918464;29;20027;-74
2022/03/20 00:41:40;;;;;;;27.38;15.90;;;;;;;0.05;100.00;103673.19;4918497;29;20028;-72
2022/03/20 00:44:26;;;;;;;26.25;15.07;;;;;;;0.11;99.21;103669.28;4918545;29;20067;-72
2022/03/20 00:47:13;;;;;;;30.90;16.73;;;;;;;-0.01;99.38;103665.03;4918453;29;20032;-72
2022/03/20 00:49:58;;;;;;;30.23;16.58;;;;;;;-0.12;98.62;103665.94;4919038;29;20446;-73
2022/03/20 00:52:45;;;;;;;31.00;15.95;;;;;;;-0.46;100.00;103672.00;4918558;29;20378;-72
2022/03/20 00:55:31;;;;;;;30.63;16.38;;;;;;;-0.57;100.00;103666.81;4918408;29;20036;-73
2022/03/20 00:58:16;;;;;;;26.73;14.95;;;;;;;-0.42;100.00;103670.53;4918535;29;20036;-72
2022/03/20 01:01:04;;;;;;;29.17;16.10;;;;;;;-0.34;99.16;103666.84;4904416;29;20041;-73
2022/03/20 01:03:49;;;;;;;29.65;16.40;;;;;;;-0.56;100.00;103672.09;4918640;29;20028;-73
2022/03/20 01:06:35;;;;;;;33.15;16.23;;;;;;;-0.10;98.20;103671.19;4918786;29;20039;-73
2022/03/20 01:09:22;;;;;;;30.50;16.63;;;;;;;-0.36;97.79;103666.72;4918788;29;20039;-72
2022/03/20 01:12:08;;;;;;;31.42;16.17;;;;;;;-0.66;100.00;103663.56;4918080;29;20028;-73
2022/03/20 01:14:55;;;;;;;37.22;17.08;;;;;;;-1.15;100.00;103664.16;4904334;29;20055;-72
2022/03/20 01:17:41;;;;;;;29.50;16.70;;;;;;;-1.23;100.00;103666.91;4917250;29;20040;-72
2022/03/20 01:20:27;;;;;;;31.80;16.92;;;;;;;-1.35;100.00;103666.88;4917778;29;20464;-72
2022/03/20 01:23:12;;;;;;;28.73;16.50;;;;;;;-1.22;100.00;103668.69;4918274;29;20095;-72
2022/03/20 01:25:58;;;;;;;27.60;16.63;;;;;;;-1.50;100.00;103669.91;4918977;29;20028;-73
2022/03/20 01:28:44;;;;;;;30.35;16.75;;;;;;;-1.30;100.00;103670.69;4918216;29;20036;-72
2022/03/20 01:31:30;;;;;;;33.72;17.13;;;;;;;-0.94;100.00;103672.56;4922437;29;20127;-71
2022/03/20 01:34:16;;;;;;;33.17;16.55;;;;;;;-0.92;100.00;103663.31;4921908;29;20051;-72
2022/03/20 01:37:02;;;;;;;33.63;17.10;;;;;;;-1.07;100.00;103673.34;4907001;29;20028;-73
2022/03/20 01:39:48;;;;;;;33.80;18.67;;;;;;;-0.73;100.00;103672.50;4908519;29;20087;-72
2022/03/20 01:42:38;;;;;;;32.28;17.65;;;;;;;-0.54;100.00;103669.63;4907844;29;20480;-73
2022/03/20 01:45:25;;;;;;;32.28;17.27;;;;;;;-0.82;100.00;103665.78;4921631;29;20036;-73
2022/03/20 01:48:10;;;;;;;32.25;17.35;;;;;;;-0.32;100.00;103667.84;4921125;29;20063;-73
2022/03/20 01:50:56;;;;;;;34.47;18.13;;;;;;;-0.42;100.00;103673.09;4921155;29;20036;-73
2022/03/20 01:53:43;;;;;;;35.08;18.35;;;;;;;-0.61;100.00;103669.94;4906677;29;20103;-73
2022/03/20 01:56:32;;;;;;;37.63;19.08;;;;;;;-0.06;100.00;103673.22;4920039;29;20028;-73
2022/03/20 01:59:18;;;;;;;33.60;18.98;;;;;;;-0.32;100.00;103678.16;4907448;29;20043;-72
2022/03/20 02:02:05;;;;;;;32.85;18.75;;;;;;;-0.25;100.00;103675.22;4921479;29;20349;-71
2022/03/20 02:04:51;;;;;;;34.42;19.55;;;;;;;-0.62;100.00;103676.78;4907656;29;20028;-72
2022/03/20 02:07:40;;;;;;;34.47;19.40;;;;;;;-0.80;100.00;103677.09;4920958;29;20110;-72
2022/03/20 02:10:35;;;;;;;37.05;20.08;;;;;;;-0.89;100.00;103671.25;4921132;29;20039;-73
2022/03/20 02:13:22;;;;;;;40.85;20.08;;;;;;;-0.99;100.00;103664.53;4906848;29;20032;-72
2022/03/20 02:16:08;;;;;;;36.92;19.85;;;;;;;-1.21;100.00;103667.91;4921115;29;20042;-72
2022/03/20 02:18:54;;;;;;;34.00;19.58;;;;;;;-1.24;100.00;103666.00;4920746;29;20517;-72
2022/03/20 02:21:45;;;;;;;43.05;20.95;;;;;;;-1.11;100.00;103675.56;4920730;29;20450;-71
2022/03/20 02:24:41;;;;;;;43.22;21.67;;;;;;;-1.05;100.00;103676.91;4906537;29;20032;-72
2022/03/20 02:27:27;;;;;;;37.40;20.38;;;;;;;-0.88;100.00;103671.34;4921040;29;20047;-73
2022/03/20 02:30:16;;;;;;;39.63;20.35;;;;;;;-1.00;100.00;103682.41;4920339;29;20044;-73
2022/03/20 02:33:02;;;;;;;36.10;20.10;;;;;;;-0.61;100.00;103680.25;4920672;29;20063;-72
2022/03/20 02:35:48;;;;;;;36.40;20.17;;;;;;;-0.91;100.00;103678.88;4920711;29;20437;-72
2022/03/20 02:38:34;;;;;;;38.28;21.02;;;;;;;-0.79;100.00;103682.38;4920868;29;20043;-72
2022/03/20 02:41:20;;;;;;;35.30;20.45;;;;;;;-0.50;100.00;103679.38;4920211;29;20035;-72
2022/03/20 02:44:06;;;;;;;39.60;19.85;;;;;;;-0.59;100.00;103679.56;4920750;29;20114;-72
2022/03/20 02:46:52;;;;;;;39.75;20.85;;;;;;;-0.51;100.00;103677.59;4920890;29;20039;-73
2022/03/20 02:49:39;;;;;;;36.67;20.05;;;;;;;-0.47;100.00;103677.03;4906758;29;20389;-73
2022/03/20 02:52:42;;;;;;;36.05;19.90;;;;;;;-0.74;100.00;103673.31;4920099;29;20031;-72
2022/03/20 02:55:30;;;;;;;41.88;21.05;;;;;;;-0.41;100.00;103674.88;4920483;29;20028;-74
2022/03/20 02:58:17;;;;;;;39.63;20.85;;;;;;;-0.94;100.00;103677.72;4906719;29;20042;-73
2022/03/20 03:01:03;;;;;;;38.25;20.83;;;;;;;-0.85;100.00;103673.25;4919915;29;20024;-73
2022/03/20 03:03:49;;;;;;;41.35;20.67;;;;;;;-0.78;100.00;103672.94;4919909;29;20036;-72
2022/03/20 03:06:34;;;;;;;33.13;19.20;;;;;;;-0.73;100.00;103675.09;4905686;29;20028;-73
2022/03/20 03:12:24;;;;;;;37.10;20.65;;;;;;;-1.24;100.00;103681.44;4919479;29;20024;-72
2022/03/20 03:15:19;;;;;;;34.67;19.25;;;;;;;-1.13;100.00;103679.66;4919586;29;20055;-73
2022/03/20 03:18:05;;;;;;;36.13;20.30;;;;;;;-1.39;100.00;103684.50;4920129;29;20169;-73
2022/03/20 03:20:51;;;;;;;34.95;19.42;;;;;;;-1.42;100.00;103681.69;4919800;29;20102;-72
2022/03/20 03:23:37;;;;;;;36.75;19.98;;;;;;;-1.28;100.00;103681.97;4919548;29;20043;-73
2022/03/20 03:26:23;;;;;;;40.78;19.98;;;;;;;-1.10;100.00;103679.91;4920005;29;20032;-72
2022/03/20 03:29:09;;;;;;;37.83;20.30;;;;;;;-1.18;100.00;103681.91;4920000;29;20449;-72
2022/03/20 03:31:54;;;;;;;38.58;19.90;;;;;;;-1.06;100.00;103689.66;4905953;29;20036;-73
2022/03/20 03:37:46;;;;;;;36.90;19.45;;;;;;;-1.57;100.00;103698.50;4919908;29;20032;-72
2022/03/20 03:40:32;;;;;;;36.47;19.45;;;;;;;-1.60;100.00;103698.25;4919946;29;20020;-73
2022/03/20 03:43:19;;;;;;;36.10;19.77;;;;;;;-1.92;100.00;103698.25;4919368;29;20034;-72
2022/03/20 03:46:06;;;;;;;37.78;20.38;;;;;;;-2.12;100.00;103706.06;4919225;29;20028;-72
2022/03/20 03:48:52;;;;;;;38.70;19.58;;;;;;;-1.85;100.00;103702.25;4905240;29;20024;-72
2022/03/20 03:51:38;;;;;;;42.33;20.95;;;;;;;-1.82;100.00;103710.16;4919035;29;20032;-71
2022/03/20 03:54:23;;;;;;;37.00;19.77;;;;;;;-1.29;100.00;103699.88;4905054;29;20028;-73
2022/03/20 03:57:09;;;;;;;36.83;20.33;;;;;;;-1.71;100.00;103702.56;4919831;29;20032;-72
2022/03/20 03:59:55;;;;;;;36.90;19.65;;;;;;;-1.90;100.00;103699.28;4905121;29;20162;-72
2022/03/20 04:02:41;;;;;;;34.33;19.75;;;;;;;-2.12;100.00;103712.88;4919198;29;20058;-72
2022/03/20 04:05:30;;;;;;;43.17;20.70;;;;;;;-2.01;100.00;103707.81;4919611;29;20056;-72
2022/03/20 04:08:16;;;;;;;36.80;20.83;;;;;;;-2.47;100.00;103712.56;4919321;29;20139;-72
2022/03/20 04:11:02;;;;;;;38.28;20.60;;;;;;;-1.90;100.00;103714.72;4919059;29;20445;-72
2022/03/20 04:13:48;;;;;;;39.20;20.33;;;;;;;-2.01;100.00;103706.94;4919250;29;20385;-73
2022/03/20 04:16:34;;;;;;;36.72;20.13;;;;;;;-2.04;100.00;103709.25;4919162;29;20103;-72
2022/03/20 04:19:20;;;;;;;40.15;21.00;;;;;;;-2.15;100.00;103715.19;4918948;29;20024;-72
2022/03/20 04:22:05;;;;;;;36.88;20.42;;;;;;;-2.19;100.00;103711.47;4919105;29;20060;-72
2022/03/20 04:24:52;;;;;;;39.42;19.92;;;;;;;-2.22;100.00;103711.22;4919113;29;20109;-72
2022/03/20 04:27:37;;;;;;;39.85;20.42;;;;;;;-2.29;100.00;103720.88;4918323;29;20028;-72
2022/03/20 04:30:27;;;;;;;42.08;21.10;;;;;;;-2.16;100.00;103719.44;4918393;29;20035;-73
2022/03/20 04:33:13;;;;;;;38.78;20.85;;;;;;;-2.07;100.00;103727.88;4919145;29;20036;-72
2022/03/20 04:35:59;;;;;;;37.33;20.52;;;;;;;-2.02;100.00;103723.09;4918520;29;20031;-73
2022/03/20 04:38:45;;;;;;;41.00;20.90;;;;;;;-2.14;100.00;103728.16;4918693;29;20092;-72
2022/03/20 04:41:31;;;;;;;39.22;20.95;;;;;;;-2.24;100.00;103724.72;4905213;29;20043;-72
2022/03/20 04:44:18;;;;;;;41.22;21.65;;;;;;;-2.10;100.00;103732.75;4918959;29;20055;-71
2022/03/20 04:47:06;;;;;;;41.30;20.98;;;;;;;-2.09;100.00;103736.25;4918473;29;20373;-71
2022/03/20 04:59:04;;;;;;;39.28;20.90;;;;;;;-2.10;100.00;103732.75;4918392;29;20036;-72
2022/03/20 05:01:50;;;;;;;37.00;20.85;;;;;;;-1.96;100.00;103741.59;4919377;29;20036;-72
2022/03/20 05:04:37;;;;;;;38.75;20.08;;;;;;;-1.90;100.00;103736.94;4921890;29;20346;-72
2022/03/20 05:07:22;;;;;;;41.03;20.60;;;;;;;-1.95;100.00;103744.28;4922344;29;20039;-72
2022/03/20 05:13:19;;;;;;;38.97;21.25;;;;;;;-1.78;100.00;103746.53;4921974;29;20345;-72
2022/03/20 05:16:05;;;;;;;40.13;20.88;;;;;;;-1.79;100.00;103738.69;4908090;29;20365;-72
2022/03/20 05:18:50;;;;;;;39.90;22.23;;;;;;;-1.76;100.00;103746.66;4922393;29;20028;-73
2022/03/20 05:21:36;;;;;;;40.83;20.52;;;;;;;-1.52;100.00;103744.34;4908207;29;20040;-72
2022/03/20 05:24:22;;;;;;;40.65;21.83;;;;;;;-1.36;100.00;103746.47;4921538;29;20032;-72
2022/03/20 05:27:08;;;;;;;41.15;22.20;;;;;;;-1.31;100.00;103747.72;4922393;29;20032;-72
2022/03/20 05:29:53;;;;;;;37.95;20.60;;;;;;;-1.34;100.00;103740.66;4921619;29;20457;-72
2022/03/20 05:32:40;;;;;;;43.50;23.08;;;;;;;-1.30;100.00;103736.63;4921915;29;20048;-72
2022/03/20 05:35:26;;;;;;;45.53;23.15;;;;;;;-1.27;100.00;103742.03;4921499;29;20369;-72
2022/03/20 05:38:12;;;;;;;42.08;22.67;;;;;;;-1.30;100.00;103744.34;4921597;29;20043;-72
2022/03/20 05:44:03;;;;;;;39.85;23.15;;;;;;;-1.20;100.00;103740.03;4921447;29;20429;-73
2022/03/20 05:46:50;;;;;;;38.42;23.08;;;;;;;-1.16;100.00;103739.50;4921246;29;20032;-72
2022/03/20 05:49:36;;;;;;;39.05;22.10;;;;;;;-0.93;100.00;103743.84;4921692;29;20028;-71
2022/03/20 05:52:22;;;;;;;37.67;21.75;;;;;;;-0.91;100.00;103748.34;4907978;29;20445;-74
2022/03/20 05:55:09;;;;;;;40.67;21.77;;;;;;;-1.09;100.00;103741.78;4921918;29;20028;-72
2022/03/20 05:58:03;;;;;;;43.78;23.27;;;;;;;-1.23;100.00;103752.69;4921738;29;20099;-72
2022/03/20 06:00:48;;;;;;;43.42;23.05;;;;;;;-0.99;100.00;103754.59;4921048;29;20052;-72
2022/03/20 06:03:35;;;;;;;46.15;23.13;;;;;;;-0.96;100.00;103754.81;4921287;29;20036;-75
2022/03/20 06:06:20;;;;;;;40.85;22.67;;;;;;;-0.88;100.00;103757.97;4921413;29;20031;-73
2022/03/20 06:09:06;;;;;;;41.40;23.08;;;;;;;-0.79;100.00;103751.88;4921095;29;20064;-72
2022/03/20 06:11:52;;;;;;;43.58;23.50;;;;;;;-0.49;100.00;103748.09;4921274;29;20119;-72
2022/03/20 06:14:38;;;;;;;42.88;23.63;;;;;;;-0.44;100.00;103752.81;4920159;29;20178;-72
2022/03/20 06:17:24;;;;;;;39.38;22.65;;;;;;;-0.30;100.00;103756.44;4920726;29;20028;-73
2022/03/20 06:20:12;;;;;;;39.17;20.40;;;;;;;-0.48;100.00;103758.53;4921208;29;20136;-72
2022/03/20 06:22:57;;;;;;;42.53;20.58;;;;;;;-0.27;100.00;103761.81;4920588;29;20032;-73
2022/03/20 06:25:43;;;;;;;38.97;20.58;;;;;;;-0.38;100.00;103758.44;4921542;29;20107;-73
2022/03/20 06:28:29;;;;;;;38.20;19.42;;;;;;;0.17;100.00;103765.97;4906860;29;20042;-72
2022/03/20 06:31:16;;;;;;;35.20;19.05;;;;;;;0.11;96.12;103756.91;4907759;29;20516;-72
2022/03/20 06:34:04;;;;;;;34.55;18.80;;;;;;;0.29;95.87;103758.22;4920900;29;20032;-74
2022/03/20 06:36:50;;;;;;;36.53;19.02;;;;;;;0.38;95.39;103758.88;4920863;29;20028;-71
2022/03/20 06:39:36;;;;;;;32.22;18.20;;;;;;;0.19;91.02;103751.50;4921131;29;20115;-73
2022/03/20 06:42:22;;;;;;;34.28;17.80;;;;;;;0.30;88.98;103758.34;4920608;29;20036;-73
2022/03/20 06:45:10;;;;;;;32.65;19.13;;;;;;;0.49;90.54;103763.13;4920829;29;20099;-73
2022/03/20 06:47:55;;;;;;;29.88;18.10;;;;;;;0.76;87.82;103755.66;4906171;29;20125;-71
2022/03/20 06:50:41;;;;;;;31.58;18.05;;;;;;;0.54;88.32;103759.19;4920389;29;20035;-72
2022/03/20 06:53:29;;;;;;;33.17;19.05;;;;;;;0.74;88.40;103759.81;4906223;29;20079;-73
2022/03/20 06:56:14;;;;;;;31.73;18.70;;;;;;;0.99;88.50;103759.84;4920592;29;20055;-73
2022/03/20 06:59:00;;;;;;;32.20;17.95;;;;;;;0.73;83.98;103755.47;4919583;29;20028;-71
2022/03/20 07:01:46;;;;;;;30.58;17.85;;;;;;;0.77;85.04;103751.41;4920380;29;20103;-73
2022/03/20 07:04:32;;;;;;;30.77;17.88;;;;;;;0.61;85.60;103746.84;4919784;29;20027;-72
2022/03/20 07:07:18;;;;;;;30.23;17.40;;;;;;;1.05;81.06;103752.53;4920537;29;20361;-71
2022/03/20 07:10:06;;;;;;;28.80;16.65;;;;;;;1.54;75.69;103750.81;4920028;29;20035;-72
2022/03/20 07:15:59;;;;;;;30.35;16.58;;;;;;;1.64;72.62;103757.50;4912395;29;20052;-72
2022/03/20 07:18:48;;;;;;;28.48;16.77;;;;;;;1.38;72.11;103762.56;4920068;29;20424;-73
2022/03/20 07:21:34;;;;;;;27.55;15.75;;;;;;;1.57;68.56;103761.31;4905750;29;20457;-71
2022/03/20 07:24:20;;;;;;;24.13;14.13;;;;;;;1.87;64.30;103763.38;4906097;29;20036;-74
2022/03/20 07:30:12;;;;;;;28.33;13.30;;;;;;;2.37;58.47;103757.19;4919694;29;20032;-76
2022/03/20 07:32:58;;;;;;;23.95;14.38;;;;;;;2.23;58.03;103754.53;4920544;29;20032;-76
2022/03/20 07:35:43;;;;;;;26.45;14.65;;;;;;;2.36;57.50;103762.25;4919821;29;20034;-72
2022/03/20 07:38:29;;;;;;;24.77;13.77;;;;;;;2.99;56.91;103755.94;4906251;29;20024;-72
2022/03/20 07:41:16;;;;;;;24.52;14.23;;;;;;;3.57;54.76;103753.44;4919320;29;20497;-72
2022/03/20 07:44:02;;;;;;;26.23;14.70;;;;;;;3.87;53.51;103750.94;4919738;29;20047;-72
2022/03/20 07:46:48;;;;;;;24.13;14.13;;;;;;;4.10;52.38;103750.56;4919535;29;20031;-72
2022/03/20 07:49:36;;;;;;;27.67;15.25;;;;;;;4.00;52.56;103756.06;4919798;29;20064;-72
2022/03/20 07:52:22;;;;;;;27.88;15.80;;;;;;;4.25;52.54;103750.53;4919723;29;20047;-72
2022/03/20 07:55:09;;;;;;;24.92;14.77;;;;;;;4.57;51.54;103751.53;4918481;29;20060;-71
2022/03/20 07:57:55;;;;;;;23.52;15.45;;;;;;;4.59;51.49;103752.50;4918828;29;20464;-73
2022/03/20 08:00:41;;;;;;;24.30;14.30;;;;;;;4.69;49.31;103749.59;4918922;29;20457;-72
2022/03/20 08:03:27;;;;;;;24.85;15.88;;;;;;;4.93;48.87;103743.13;4905785;29;20483;-71
2022/03/20 08:06:12;;;;;;;25.45;15.77;;;;;;;5.19;48.16;103744.53;4919037;29;20036;-72
2022/03/20 08:08:59;;;;;;;22.88;13.88;;;;;;;5.51;47.39;103756.56;4918932;29;20024;-72
2022/03/20 08:11:45;;;;;;;19.23;12.57;;;;;;;5.86;46.45;103730.69;4919346;29;20036;-73
2022/03/20 08:14:31;;;;;;;19.48;12.35;;;;;;;5.26;45.18;103738.81;4918821;29;20070;-73
2022/03/20 08:17:17;;;;;;;23.00;13.05;;;;;;;4.94;45.11;103731.94;4918747;29;20024;-73
2022/03/20 08:20:03;;;;;;;19.60;11.82;;;;;;;5.57;45.03;103730.88;4919294;29;20054;-74
2022/03/20 08:22:49;;;;;;;23.25;12.15;;;;;;;5.92;44.13;103730.97;4904863;29;20127;-72
2022/03/20 08:25:35;;;;;;;21.10;12.15;;;;;;;6.12;43.24;103722.41;4919290;29;20424;-72
2022/03/20 08:28:20;;;;;;;19.52;12.23;;;;;;;6.51;42.32;103727.78;4918420;29;20028;-72
2022/03/20 08:31:06;;;;;;;18.20;11.75;;;;;;;6.49;42.33;103720.72;4919049;29;20028;-71
2022/03/20 08:33:52;;;;;;;22.27;14.05;;;;;;;6.71;42.00;103721.78;4919040;29;20028;-71
2022/03/20 08:36:38;;;;;;;19.25;11.85;;;;;;;6.82;40.81;103717.06;4918414;29;20376;-72
2022/03/20 08:39:24;;;;;;;17.00;11.25;;;;;;;7.34;40.27;103713.34;4922039;29;20102;-75
2022/03/20 08:42:10;;;;;;;17.65;11.63;;;;;;;7.40;39.96;103706.66;4922288;29;20070;-73
2022/03/20 08:44:56;;;;;;;17.80;11.77;;;;;;;7.36;40.52;103709.09;4922485;29;20060;-72
2022/03/20 08:47:45;;;;;;;18.80;10.93;;;;;;;7.96;38.64;103707.31;4922357;29;20361;-73
2022/03/20 08:50:30;;;;;;;15.98;10.10;;;;;;;7.10;38.78;103701.84;4922537;29;20032;-73
2022/03/20 08:53:20;;;;;;;17.92;11.43;;;;;;;7.34;39.26;103695.06;4924453;29;20490;-72
2022/03/20 08:56:06;;;;;;;21.27;10.32;;;;;;;8.02;39.14;103697.13;4908923;29;20068;-74
2022/03/20 08:58:51;;;;;;;18.88;9.90;;;;;;;8.17;37.12;103697.75;4922130;29;20107;-72
2022/03/20 09:01:37;;;;;;;17.02;9.65;;;;;;;8.11;36.87;103684.44;4909682;29;20111;-73
2022/03/20 09:04:23;;;;;;;18.08;10.25;;;;;;;7.93;35.93;103690.66;4923117;29;20035;-72
2022/03/20 09:07:09;;;;;;;18.42;10.48;;;;;;;8.31;36.61;103677.41;4921956;29;20032;-71
2022/03/20 09:09:54;;;;;;;17.02;9.82;;;;;;;8.44;36.90;103682.28;4922347;29;20032;-72
2022/03/20 09:12:42;;;;;;;17.63;9.95;;;;;;;8.62;35.96;103677.75;4921630;29;20071;-72
2022/03/20 09:15:29;;;;;;;15.98;9.45;;;;;;;8.49;36.09;103670.28;4923508;28;20142;-72
2022/03/20 09:21:19;;;;;;;16.65;9.75;;;;;;;8.69;35.57;103667.56;4922233;29;20476;-72
2022/03/20 09:24:06;;;;;;;17.05;9.55;;;;;;;8.23;35.92;103657.94;4908816;29;20042;-73
2022/03/20 09:26:52;;;;;;;17.08;9.85;;;;;;;8.74;35.80;103652.06;4922735;29;20485;-72
2022/03/20 09:29:38;;;;;;;16.52;9.82;;;;;;;9.23;35.30;103661.72;4922761;28;20354;-72
2022/03/20 09:32:24;;;;;;;16.88;10.10;;;;;;;8.66;35.09;103656.13;4908551;29;20100;-73
2022/03/20 09:35:11;;;;;;;16.05;10.02;;;;;;;8.68;35.36;103657.09;4921549;29;20075;-72
2022/03/20 09:37:57;;;;;;;14.02;8.85;;;;;;;8.07;35.19;103648.59;4907697;29;20028;-73
2022/03/20 09:40:43;;;;;;;16.25;9.25;;;;;;;8.84;34.76;103644.59;4921797;29;20032;-72
2022/03/20 09:43:31;;;;;;;13.20;8.93;;;;;;;8.52;34.68;103634.69;4922006;29;20051;-73
2022/03/20 09:46:21;;;;;;;16.23;8.90;;;;;;;8.44;34.31;103628.28;4922106;29;20032;-72
2022/03/20 09:49:07;;;;;;;14.90;8.85;;;;;;;8.70;34.89;103624.94;4921010;29;20026;-73
2022/03/20 09:51:53;;;;;;;14.32;9.10;;;;;;;8.75;34.49;103623.38;4921929;29;20028;-73
2022/03/20 09:54:39;;;;;;;14.43;8.05;;;;;;;9.08;33.79;103611.47;4920964;29;20028;-74
2022/03/20 09:57:30;;;;;;;15.13;8.68;;;;;;;9.16;34.17;103607.41;4922455;28;20028;-73
2022/03/20 10:00:17;;;;;;;11.65;8.30;;;;;;;8.77;33.71;103607.75;4921058;29;20036;-73
2022/03/20 10:03:16;;;;;;;12.88;7.22;;;;;;;9.03;32.44;103599.97;4907248;29;20024;-73
2022/03/20 10:06:16;;;;;;;11.05;7.43;;;;;;;8.59;32.77;103592.28;4920936;29;20131;-73
2022/03/20 10:09:04;;;;;;;9.93;7.13;;;;;;;8.80;31.90;103600.00;4922530;29;20442;-73
2022/03/20 10:11:53;;;;;;;17.55;7.38;;;;;;;8.72;32.59;103598.84;4921579;29;20453;-73
2022/03/20 10:14:45;;;;;;;15.27;7.43;;;;;;;9.29;32.29;103587.78;4920766;29;20127;-72
2022/03/20 10:17:31;;;;;;;11.82;7.03;;;;;;;9.08;31.60;103587.03;4921260;29;20501;-72
2022/03/20 10:20:20;;;;;;;20.13;7.78;;;;;;;9.04;30.90;103593.00;4921247;29;20032;-73
2022/03/20 10:23:30;;;;;;;18.73;7.13;;;;;;;9.09;31.50;103587.09;4921257;29;20035;-75
2022/03/20 10:26:17;;;;;;;13.80;7.57;;;;;;;8.99;30.87;103582.41;4921781;29;20050;-72
2022/03/20 10:29:04;;;;;;;17.98;7.72;;;;;;;8.72;31.17;103580.56;4921290;29;20032;-71
2022/03/20 10:31:51;;;;;;;15.48;7.32;;;;;;;8.50;30.71;103586.72;4920749;29;20088;-72
2022/03/20 10:34:57;;;;;;;14.43;8.10;;;;;;;8.71;31.16;103581.38;4920362;29;20035;-73
2022/03/20 10:37:49;;;;;;;21.27;13.02;;;;;;;8.99;31.46;103563.19;4920877;29;20046;-72
2022/03/20 10:40:35;;;;;;;13.75;8.07;;;;;;;9.22;30.67;103559.63;4921218;29;20039;-73
2022/03/20 10:43:21;;;;;;;17.40;7.75;;;;;;;9.54;29.95;103572.94;4921918;28;20043;-72
2022/03/20 10:46:06;;;;;;;14.00;7.30;;;;;;;8.95;30.77;103549.13;4920866;29;20124;-73
2022/03/20 10:48:55;;;;;;;11.07;7.30;;;;;;;9.36;30.35;103558.34;4920619;29;20064;-72
2022/03/20 10:51:42;;;;;;;11.52;7.35;;;;;;;9.38;30.78;103547.13;4920807;29;20032;-73
2022/03/20 10:54:49;;;;;;;12.95;7.38;;;;;;;9.69;30.80;103547.22;4920689;29;20393;-73
2022/03/20 10:57:36;;;;;;;10.40;7.32;;;;;;;10.02;30.26;103552.59;4921410;28;20146;-72
2022/03/20 11:00:21;;;;;;;13.98;7.07;;;;;;;9.81;29.39;103534.50;4920692;28;20051;-72
2022/03/20 11:03:07;;;;;;;14.52;7.60;;;;;;;10.11;29.92;103534.56;4921227;28;20043;-73
2022/03/20 11:05:54;;;;;;;11.80;7.85;;;;;;;9.92;29.83;103542.69;4919950;29;20040;-72
2022/03/20 11:08:40;;;;;;;10.48;7.10;;;;;;;9.41;29.91;103535.84;4920226;29;20468;-72
2022/03/20 11:11:27;;;;;;;16.00;7.78;;;;;;;9.43;29.77;103527.22;4920720;28;20115;-73
2022/03/20 11:14:15;;;;;;;11.45;8.07;;;;;;;9.48;30.30;103519.47;4919759;29;20074;-74
2022/03/20 11:17:05;;;;;;;13.48;8.35;;;;;;;10.28;30.11;103521.97;4906617;29;20103;-74
2022/03/20 11:19:54;;;;;;;15.18;6.82;;;;;;;10.43;29.28;103520.66;4920225;29;20052;-73
2022/03/20 11:22:51;;;;;;;11.52;7.30;;;;;;;9.48;29.51;103509.00;4920996;28;20106;-73
2022/03/20 11:25:38;;;;;;;11.85;7.28;;;;;;;9.09;29.58;103520.84;4920581;29;20092;-72
2022/03/20 11:28:25;;;;;;;13.15;7.35;;;;;;;8.69;30.68;103509.88;4906120;29;20470;-72
2022/03/20 11:31:12;;;;;;;13.00;7.78;;;;;;;9.50;29.58;103502.13;4919518;29;20033;-72
2022/03/20 11:33:58;;;;;;;14.02;8.60;;;;;;;10.01;29.51;103501.94;4919418;29;20028;-73
2022/03/20 11:37:07;;;;;;;12.77;8.43;;;;;;;10.51;29.09;103489.38;4920259;28;20035;-73
2022/03/20 11:40:11;;;;;;;12.35;8.00;;;;;;;10.46;29.16;103497.16;4920768;28;20035;-73
2022/03/20 11:43:19;;;;;;;11.68;7.90;;;;;;;10.76;29.15;103490.06;4906347;29;20485;-74
2022/03/20 11:46:26;;;;;;;12.45;8.40;;;;;;;10.89;29.32;103478.19;4920348;29;20111;-73
2022/03/20 11:49:18;;;;;;;12.35;7.97;;;;;;;10.96;30.01;103480.97;4919602;29;20433;-74
2022/03/20 11:52:13;;;;;;;12.05;7.70;;;;;;;10.79;28.99;103476.16;4919814;29;20036;-74
2022/03/20 11:54:59;;;;;;;11.55;7.80;;;;;;;10.46;29.13;103467.41;4920208;28;20056;-73
2022/03/20 11:57:46;;;;;;;15.55;9.38;;;;;;;11.22;28.69;103477.25;4920073;28;20071;-74
2022/03/20 12:00:35;;;;;;;12.18;7.40;;;;;;;10.55;28.37;103468.56;4919599;29;20032;-73
2022/03/20 12:03:31;;;;;;;11.40;8.10;;;;;;;10.12;29.40;103462.97;4919110;29;20377;-72
2022/03/20 12:06:54;;;;;;;12.10;7.68;;;;;;;10.13;29.13;103475.25;4919458;29;20027;-73
2022/03/20 12:09:52;;;;;;;12.48;7.45;;;;;;;10.71;28.92;103468.09;4919368;29;20135;-73
2022/03/20 12:12:44;;;;;;;15.73;8.18;;;;;;;9.75;28.76;103467.97;4918170;29;20377;-73
2022/03/20 12:15:31;;;;;;;13.98;7.90;;;;;;;10.00;29.24;103466.13;4919175;29;20363;-72
2022/03/20 12:18:16;;;;;;;13.38;7.80;;;;;;;10.43;29.36;103455.13;4919370;29;20059;-72
2022/03/20 12:21:02;;;;;;;12.90;7.68;;;;;;;10.07;29.34;103455.00;4905623;29;20091;-74
2022/03/20 12:23:48;;;;;;;14.05;7.82;;;;;;;9.43;29.19;103450.41;4919144;29;20051;-73
2022/03/20 12:26:34;;;;;;;11.40;7.93;;;;;;;10.01;28.91;103453.91;4919553;29;20365;-73
2022/03/20 12:29:37;;;;;;;13.63;7.40;;;;;;;9.92;29.14;103448.41;4918910;29;20032;-73
2022/03/20 12:32:26;;;;;;;13.25;7.57;;;;;;;9.62;30.05;103445.78;4919511;29;20028;-74
2022/03/20 12:35:15;;;;;;;14.02;8.10;;;;;;;9.98;29.31;103438.97;4919330;29;20111;-74
2022/03/20 12:38:00;;;;;;;13.15;8.10;;;;;;;9.97;29.27;103431.97;4919600;29;20020;-75
2022/03/20 12:40:46;;;;;;;11.40;7.55;;;;;;;10.61;28.92;103429.38;4919208;29;20055;-74
2022/03/20 12:43:32;;;;;;;16.92;8.82;;;;;;;10.25;29.27;103424.91;4919133;29;20119;-75
2022/03/20 12:46:18;;;;;;;20.45;9.15;;;;;;;10.40;29.15;103430.56;4920233;28;20492;-73
2022/03/20 12:49:04;;;;;;;15.85;9.18;;;;;;;10.61;29.55;103416.25;4919726;28;20127;-74
2022/03/20 12:51:52;;;;;;;16.17;9.57;;;;;;;10.99;28.97;103423.34;4918745;29;20365;-74
2022/03/20 12:54:38;;;;;;;17.25;9.02;;;;;;;10.22;30.02;103422.19;4918895;29;20453;-74
2022/03/20 12:57:47;;;;;;;12.45;8.45;;;;;;;9.90;29.57;103418.69;4919079;29;20036;-74
2022/03/20 13:00:37;;;;;;;15.63;9.07;;;;;;;10.32;29.93;103422.50;4919286;28;20087;-74
2022/03/20 13:03:25;;;;;;;16.67;9.05;;;;;;;10.27;30.28;103408.38;4918985;29;20078;-73
2022/03/20 13:06:11;;;;;;;21.38;11.05;;;;;;;10.47;29.58;103416.75;4918912;29;20025;-73
2022/03/20 13:08:56;;;;;;;17.00;9.30;;;;;;;10.35;29.89;103393.75;4918445;29;20043;-72
2022/03/20 13:11:51;;;;;;;14.88;9.35;;;;;;;10.33;30.03;103405.91;4918712;29;20040;-74
2022/03/20 13:14:48;;;;;;;15.38;9.20;;;;;;;10.86;29.72;103407.28;4918390;29;20135;-73